createdAt,value
2019-05-28T00:01:45.159Z,88.40
2019-05-28T00:04:10.937Z,88.76
2019-05-28T00:06:36.739Z,88.31
2019-05-28T00:09:05.508Z,88.08
2019-05-28T00:11:31.309Z,88.29
2019-05-28T00:13:57.092Z,88.25
2019-05-28T00:16:22.892Z,88.10
2019-05-28T00:18:50.823Z,88.29
2019-05-28T00:21:16.622Z,87.98
2019-05-28T00:23:42.412Z,87.68
2019-05-28T00:26:08.203Z,87.47
2019-05-28T00:28:33.981Z,87.09
2019-05-28T00:30:59.769Z,87.14
2019-05-28T00:33:25.560Z,87.70
2019-05-28T00:35:51.340Z,87.26
2019-05-28T00:38:17.144Z,87.27
2019-05-28T00:40:42.936Z,87.72
2019-05-28T00:43:08.726Z,87.72
2019-05-28T00:45:34.504Z,87.42
2019-05-28T00:48:00.308Z,87.95
2019-05-28T00:50:26.079Z,87.55
2019-05-28T00:52:51.968Z,87.56
2019-05-28T00:55:17.840Z,87.50
2019-05-28T00:57:44.833Z,87.70
2019-05-28T01:00:11.304Z,87.53
2019-05-28T01:02:37.075Z,87.45
2019-05-28T01:05:04.591Z,87.44
2019-05-28T01:07:30.411Z,87.95
2019-05-28T01:09:56.200Z,87.94
2019-05-28T01:12:22.046Z,87.59
2019-05-28T01:14:47.842Z,88.03
2019-05-28T01:17:13.663Z,87.76
2019-05-28T01:19:39.445Z,88.11
2019-05-28T01:22:05.239Z,87.79
2019-05-28T01:24:31.049Z,87.84
2019-05-28T01:26:56.835Z,88.03
2019-05-28T01:29:22.636Z,88.10
2019-05-28T01:31:48.423Z,88.11
2019-05-28T01:35:09.903Z,87.99
2019-05-28T01:37:35.722Z,87.60
2019-05-28T01:40:04.213Z,87.73
2019-05-28T01:42:30.024Z,87.49
2019-05-28T01:44:55.839Z,87.42
2019-05-28T01:47:21.620Z,87.14
2019-05-28T01:49:47.427Z,86.97
2019-05-28T01:52:13.210Z,86.73
2019-05-28T01:54:39.009Z,86.96
2019-05-28T01:57:04.799Z,86.91
2019-05-28T01:59:30.599Z,86.73
2019-05-28T02:01:56.383Z,86.46
2019-05-28T02:04:22.188Z,86.71
2019-05-28T02:06:47.994Z,86.71
2019-05-28T02:09:13.790Z,86.91
2019-05-28T02:11:39.594Z,86.62
2019-05-28T02:14:05.417Z,86.97
2019-05-28T02:16:31.253Z,87.22
2019-05-28T02:18:57.126Z,87.01
2019-05-28T02:21:22.936Z,87.00
2019-05-28T02:23:48.770Z,86.59
2019-05-28T02:26:14.553Z,87.42
2019-05-28T02:28:40.351Z,87.47
2019-05-28T02:31:06.148Z,87.30
2019-05-28T02:33:31.957Z,87.63
2019-05-28T02:35:57.772Z,87.75
2019-05-28T02:38:23.550Z,87.83
2019-05-28T02:40:49.357Z,87.84
2019-05-28T02:43:15.166Z,88.18
2019-05-28T02:45:40.998Z,88.62
2019-05-28T02:48:06.888Z,88.70
2019-05-28T02:50:54.400Z,88.86
2019-05-28T02:53:20.492Z,88.37
2019-05-28T02:55:46.707Z,88.77
2019-05-28T02:58:13.627Z,87.97
2019-05-28T03:00:41.531Z,87.97
2019-05-28T03:03:09.444Z,88.07
2019-05-28T03:05:36.056Z,88.17
2019-05-28T03:08:02.574Z,88.28
2019-05-28T03:10:59.852Z,88.37
2019-05-28T03:13:04.280Z,88.26
2019-05-28T03:15:32.674Z,88.37
2019-05-28T03:17:58.593Z,87.84
2019-05-28T03:20:24.587Z,87.84
2019-05-28T03:22:50.770Z,87.83
2019-05-28T03:25:17.545Z,87.96
2019-05-28T03:27:43.360Z,88.13
2019-05-28T03:30:09.798Z,88.01
2019-05-28T03:32:35.687Z,88.83
2019-05-28T03:35:02.835Z,88.93
2019-05-28T03:37:29.229Z,88.13
2019-05-28T03:39:56.427Z,88.13
2019-05-28T03:42:22.234Z,88.75
2019-05-28T03:44:48.022Z,88.49
2019-05-28T03:47:13.830Z,88.86
2019-05-28T03:49:39.612Z,88.71
2019-05-28T03:52:05.411Z,88.94
2019-05-28T03:54:31.194Z,88.97
2019-05-28T03:56:56.993Z,89.38
2019-05-28T03:59:22.773Z,89.35
2019-05-28T04:01:48.581Z,89.48
2019-05-28T04:04:14.367Z,89.66
2019-05-28T04:06:40.179Z,89.18
2019-05-28T04:09:06.861Z,88.91
2019-05-28T04:11:44.304Z,89.18
2019-05-28T04:14:01.100Z,89.04
2019-05-28T04:16:26.900Z,89.11
2019-05-28T04:18:52.689Z,88.98
2019-05-28T04:21:18.518Z,89.13
2019-05-28T04:23:44.330Z,89.00
2019-05-28T04:26:10.118Z,89.30
2019-05-28T04:28:36.018Z,89.70
2019-05-28T04:31:01.798Z,89.82
2019-05-28T04:33:27.602Z,89.72
2019-05-28T04:35:53.410Z,89.71
2019-05-28T04:38:19.236Z,89.59
2019-05-28T04:40:45.028Z,89.57
2019-05-28T04:43:10.844Z,89.55
2019-05-28T04:45:36.655Z,89.52
2019-05-28T04:48:02.667Z,89.43
2019-05-28T04:50:28.472Z,89.17
2019-05-28T04:52:54.295Z,89.17
2019-05-28T04:55:20.107Z,89.58
2019-05-28T04:57:45.904Z,89.44
2019-05-28T05:00:11.886Z,89.20
2019-05-28T05:02:37.672Z,89.27
2019-05-28T05:05:05.971Z,89.26
2019-05-28T05:07:31.770Z,88.51
2019-05-28T05:09:57.572Z,88.62
2019-05-28T05:12:23.350Z,88.06
2019-05-28T05:14:49.184Z,88.42
2019-05-28T05:17:14.961Z,87.64
2019-05-28T05:19:40.794Z,87.83
2019-05-28T05:22:06.578Z,87.65
2019-05-28T05:24:32.418Z,86.38
2019-05-28T05:26:58.224Z,86.93
2019-05-28T05:29:24.020Z,86.15
2019-05-28T05:31:49.825Z,85.81
2019-05-28T05:34:15.641Z,85.52
2019-05-28T05:36:41.433Z,85.58
2019-05-28T05:39:07.335Z,85.56
2019-05-28T05:41:33.129Z,86.01
2019-05-28T05:43:58.951Z,84.70
2019-05-28T05:46:24.734Z,84.96
2019-05-28T05:48:50.539Z,83.93
2019-05-28T05:51:16.330Z,83.95
2019-05-28T05:53:42.132Z,82.99
2019-05-28T05:56:08.052Z,82.07
2019-05-28T05:58:33.854Z,82.45
2019-05-28T06:00:59.638Z,81.64
2019-05-28T06:03:39.943Z,81.82
2019-05-28T06:05:53.136Z,81.21
2019-05-28T06:08:18.926Z,80.29
2019-05-28T06:10:44.725Z,80.72
2019-05-28T06:13:10.532Z,80.56
2019-05-28T06:15:36.348Z,80.20
2019-05-28T06:18:02.276Z,79.46
2019-05-28T06:20:28.172Z,78.29
2019-05-28T06:22:53.973Z,78.19
2019-05-28T06:25:19.780Z,77.00
2019-05-28T06:27:45.597Z,76.19
2019-05-28T06:30:11.496Z,74.88
2019-05-28T06:32:38.546Z,74.80
2019-05-28T06:35:04.618Z,75.20
2019-05-28T06:37:30.403Z,74.30
2019-05-28T06:39:56.231Z,74.43
2019-05-28T06:42:22.049Z,73.45
2019-05-28T06:44:47.843Z,72.83
2019-05-28T06:47:13.783Z,72.35
2019-05-28T06:49:39.575Z,70.97
2019-05-28T06:52:06.125Z,71.21
2019-05-28T06:54:31.927Z,70.62
2019-05-28T06:56:57.723Z,69.19
2019-05-28T06:59:23.513Z,67.30
2019-05-28T07:01:49.326Z,64.45
2019-05-28T07:04:31.409Z,64.46
2019-05-28T07:06:42.835Z,63.97
2019-05-28T07:09:08.671Z,63.10
2019-05-28T07:11:34.539Z,62.48
2019-05-28T07:14:00.315Z,63.10
2019-05-28T07:16:26.126Z,61.78
2019-05-28T07:18:51.914Z,61.76
2019-05-28T07:21:17.710Z,62.95
2019-05-28T07:23:43.783Z,60.64
2019-05-28T07:26:09.657Z,59.36
2019-05-28T07:28:35.447Z,59.41
2019-05-28T07:31:01.263Z,58.31
2019-05-28T07:33:27.059Z,57.29
2019-05-28T07:35:52.862Z,58.74
2019-05-28T07:38:18.669Z,56.18
2019-05-28T07:40:44.489Z,54.01
2019-05-28T07:43:10.314Z,54.56
2019-05-28T07:45:36.098Z,53.59
2019-05-28T07:48:03.853Z,54.32
2019-05-28T07:50:29.651Z,55.36
2019-05-28T07:52:55.449Z,51.62
2019-05-28T07:55:21.248Z,53.62
2019-05-28T07:57:47.038Z,55.39
2019-05-28T08:00:13.243Z,56.76
2019-05-28T08:02:39.169Z,57.33
2019-05-28T08:05:05.351Z,57.60
2019-05-28T08:07:31.151Z,57.64
2019-05-28T08:09:56.958Z,58.28
2019-05-28T08:12:22.762Z,59.49
2019-05-28T08:14:48.547Z,60.59
2019-05-28T08:17:14.467Z,60.66
2019-05-28T08:19:40.258Z,61.57
2019-05-28T08:22:06.154Z,61.43
2019-05-28T08:24:31.965Z,62.12
2019-05-28T08:26:57.751Z,61.45
2019-05-28T08:29:23.553Z,61.78
2019-05-28T08:31:49.353Z,61.69
2019-05-28T08:34:19.165Z,61.94
2019-05-28T08:36:42.941Z,60.53
2019-05-28T08:39:08.950Z,60.20
2019-05-28T08:41:34.950Z,60.52
2019-05-28T08:44:00.777Z,60.85
2019-05-28T08:46:26.572Z,59.33
2019-05-28T08:48:52.379Z,60.43
2019-05-28T08:51:18.166Z,59.79
2019-05-28T08:53:43.977Z,60.82
2019-05-28T08:56:09.770Z,60.99
2019-05-28T08:58:35.670Z,61.42
2019-05-28T09:01:01.484Z,61.11
2019-05-28T09:03:27.286Z,61.47
2019-05-28T09:05:53.085Z,61.21
2019-05-28T09:08:19.016Z,60.12
2019-05-28T09:10:44.834Z,59.53
2019-05-28T09:13:10.622Z,56.67
2019-05-28T09:15:36.455Z,53.44
2019-05-28T09:18:02.603Z,54.40
2019-05-28T09:20:28.543Z,54.63
2019-05-28T09:22:54.671Z,55.45
2019-05-28T09:25:20.831Z,54.61
2019-05-28T09:27:50.020Z,54.01
2019-05-28T09:30:16.125Z,54.32
2019-05-28T09:32:41.941Z,54.19
2019-05-28T09:35:08.134Z,55.35
2019-05-28T09:37:33.997Z,55.54
2019-05-28T09:39:59.995Z,56.10
2019-05-28T09:42:25.792Z,56.67
2019-05-28T09:44:51.594Z,55.15
2019-05-28T09:47:17.402Z,55.71
2019-05-28T09:49:43.198Z,55.18
2019-05-28T09:52:09.093Z,52.97
2019-05-28T09:54:34.900Z,53.90
2019-05-28T09:57:00.689Z,53.25
2019-05-28T09:59:40.636Z,53.25
2019-05-28T10:01:54.430Z,54.39
2019-05-28T10:04:20.236Z,53.19
2019-05-28T10:06:46.033Z,51.43
2019-05-28T10:09:11.852Z,52.24
2019-05-28T10:11:37.729Z,51.06
2019-05-28T10:14:03.495Z,50.55
2019-05-28T10:16:29.294Z,49.74
2019-05-28T10:18:55.086Z,48.92
2019-05-28T10:21:20.884Z,50.78
2019-05-28T10:23:46.685Z,49.57
2019-05-28T10:26:12.487Z,49.06
2019-05-28T10:28:38.285Z,51.77
2019-05-28T10:31:04.106Z,47.24
2019-05-28T10:33:29.953Z,47.27
2019-05-28T10:35:55.768Z,48.26
2019-05-28T10:38:21.560Z,48.56
2019-05-28T10:40:47.377Z,49.32
2019-05-28T10:43:13.185Z,49.35
2019-05-28T10:45:39.053Z,49.15
2019-05-28T10:48:04.808Z,50.06
2019-05-28T10:50:30.625Z,49.54
2019-05-28T10:52:56.512Z,50.37
2019-05-28T10:55:22.310Z,51.00
2019-05-28T10:57:48.106Z,51.01
2019-05-28T11:00:14.324Z,51.95
2019-05-28T11:02:40.134Z,51.49
2019-05-28T11:05:06.818Z,50.68
2019-05-28T11:07:32.623Z,49.69
2019-05-28T11:09:58.416Z,49.13
2019-05-28T11:12:24.218Z,48.57
2019-05-28T11:14:50.019Z,46.77
2019-05-28T11:17:15.837Z,47.21
2019-05-28T11:19:41.658Z,47.27
2019-05-28T11:22:07.566Z,48.67
2019-05-28T11:24:33.370Z,50.02
2019-05-28T11:26:59.179Z,49.24
2019-05-28T11:29:24.978Z,49.28
2019-05-28T11:31:50.776Z,49.60
2019-05-28T11:34:16.558Z,48.99
2019-05-28T11:36:42.406Z,48.85
2019-05-28T11:39:08.818Z,46.40
2019-05-28T11:41:42.169Z,42.75
2019-05-28T11:44:02.438Z,43.73
2019-05-28T11:46:28.230Z,45.52
2019-05-28T11:48:54.022Z,46.65
2019-05-28T11:51:19.916Z,46.20
2019-05-28T11:53:45.711Z,46.69
2019-05-28T11:56:11.507Z,47.02
2019-05-28T11:58:37.303Z,49.35
2019-05-28T12:01:03.115Z,48.93
2019-05-28T12:03:28.907Z,48.93
2019-05-28T12:05:54.705Z,49.55
2019-05-28T12:08:20.507Z,50.40
2019-05-28T12:10:46.313Z,49.46
2019-05-28T12:13:12.124Z,48.99
2019-05-28T12:15:37.912Z,49.01
2019-05-28T12:18:03.723Z,48.70
2019-05-28T12:20:30.448Z,47.45
2019-05-28T12:23:10.286Z,43.80
2019-05-28T12:25:24.231Z,44.47
2019-05-28T12:27:50.024Z,41.99
2019-05-28T12:30:18.435Z,42.21
2019-05-28T12:32:44.114Z,44.83
2019-05-28T12:35:26.318Z,45.96
2019-05-28T12:37:48.217Z,47.03
2019-05-28T12:40:07.253Z,42.60
2019-05-28T12:42:33.373Z,44.25
2019-05-28T12:45:09.413Z,42.90
2019-05-28T12:47:26.949Z,43.53
2019-05-28T12:49:52.734Z,44.22
2019-05-28T12:52:18.548Z,43.83
2019-05-28T12:54:44.349Z,44.82
2019-05-28T12:57:10.138Z,46.41
2019-05-28T12:59:35.954Z,45.35
2019-05-28T13:02:01.751Z,43.40
2019-05-28T13:04:27.549Z,39.44
2019-05-28T13:06:53.334Z,40.71
2019-05-28T13:09:19.133Z,42.47
2019-05-28T13:11:44.945Z,44.72
2019-05-28T13:14:10.757Z,45.52
2019-05-28T13:16:36.540Z,46.72
2019-05-28T13:19:02.435Z,47.04
2019-05-28T13:21:28.239Z,47.36
2019-05-28T13:23:54.233Z,47.01
2019-05-28T13:26:20.046Z,44.75
2019-05-28T13:28:45.840Z,44.17
2019-05-28T13:31:11.641Z,44.98
2019-05-28T13:33:37.429Z,45.21
2019-05-28T13:36:03.354Z,45.12
2019-05-28T13:38:29.168Z,46.14
2019-05-28T13:40:54.964Z,48.10
2019-05-28T13:43:20.771Z,48.94
2019-05-28T13:45:46.591Z,48.94
2019-05-28T13:48:12.408Z,48.81
2019-05-28T13:50:38.310Z,47.84
2019-05-28T13:53:04.119Z,48.50
2019-05-28T13:55:29.938Z,47.01
2019-05-28T13:57:55.734Z,44.79
2019-05-28T14:00:21.829Z,43.20
2019-05-28T14:02:47.614Z,41.80
2019-05-28T14:05:14.506Z,41.85
2019-05-28T14:07:40.314Z,43.78
2019-05-28T14:10:06.203Z,44.95
2019-05-28T14:12:32.001Z,45.98
2019-05-28T14:14:57.809Z,47.16
2019-05-28T14:17:23.611Z,45.22
2019-05-28T14:19:49.427Z,42.35
2019-05-28T14:22:30.862Z,41.77
2019-05-28T14:24:43.673Z,41.57
2019-05-28T14:27:09.493Z,39.24
2019-05-28T14:29:35.278Z,39.22
2019-05-28T14:32:01.085Z,40.10
2019-05-28T14:34:26.975Z,39.88
2019-05-28T14:36:53.005Z,42.10
2019-05-28T14:39:18.759Z,42.53
2019-05-28T14:41:44.553Z,42.45
2019-05-28T14:44:10.338Z,42.83
2019-05-28T14:46:36.127Z,42.33
2019-05-28T14:49:01.937Z,42.92
2019-05-28T14:51:27.722Z,42.58
2019-05-28T14:53:53.538Z,44.45
2019-05-28T14:56:19.324Z,44.28
2019-05-28T14:58:45.118Z,44.20
2019-05-28T15:01:10.912Z,44.74
2019-05-28T15:03:36.711Z,45.00
2019-05-28T15:06:02.720Z,46.08
2019-05-28T15:08:28.798Z,46.51
2019-05-28T15:10:54.573Z,46.14
2019-05-28T15:13:20.370Z,46.68
2019-05-28T15:15:46.155Z,47.73
2019-05-28T15:18:11.978Z,48.20
2019-05-28T15:20:37.779Z,47.54
2019-05-28T15:23:03.622Z,47.54
2019-05-28T15:25:29.411Z,46.78
2019-05-28T15:27:55.241Z,46.59
2019-05-28T15:30:21.419Z,46.37
2019-05-28T15:32:47.239Z,46.78
2019-05-28T15:35:13.223Z,46.46
2019-05-28T15:37:39.055Z,46.04
2019-05-28T15:40:05.832Z,45.74
2019-05-28T15:42:31.671Z,45.97
2019-05-28T15:44:57.465Z,45.73
2019-05-28T15:47:23.260Z,45.88
2019-05-28T15:49:49.067Z,44.79
2019-05-28T15:52:16.877Z,45.21
2019-05-28T15:54:42.682Z,45.18
2019-05-28T15:57:08.497Z,45.29
2019-05-28T15:59:34.295Z,43.96
2019-05-28T16:02:00.087Z,44.76
2019-05-28T16:04:25.883Z,45.03
2019-05-28T16:06:51.679Z,45.43
2019-05-28T16:09:17.482Z,45.29
2019-05-28T16:11:43.277Z,45.39
2019-05-28T16:14:09.065Z,44.83
2019-05-28T16:16:34.882Z,45.27
2019-05-28T16:19:00.685Z,46.08
2019-05-28T16:21:26.485Z,44.14
2019-05-28T16:23:52.296Z,45.22
2019-05-28T16:26:18.082Z,45.41
2019-05-28T16:28:43.895Z,45.13
2019-05-28T16:31:12.736Z,45.02
2019-05-28T16:33:38.456Z,44.57
2019-05-28T16:36:04.261Z,45.72
2019-05-28T16:38:30.090Z,46.10
2019-05-28T16:40:55.885Z,46.97
2019-05-28T16:43:21.688Z,47.18
2019-05-28T16:45:47.491Z,46.97
2019-05-28T16:48:13.298Z,46.77
2019-05-28T16:50:39.109Z,46.55
2019-05-28T16:53:05.216Z,47.29
2019-05-28T16:55:31.051Z,47.41
2019-05-28T16:57:56.824Z,48.65
2019-05-28T17:00:22.747Z,47.29
2019-05-28T17:02:48.521Z,47.02
2019-05-28T17:05:14.920Z,47.35
2019-05-28T17:07:40.717Z,47.79
2019-05-28T17:10:06.743Z,47.38
2019-05-28T17:12:32.541Z,47.23
2019-05-28T17:14:58.348Z,47.20
2019-05-28T17:17:24.161Z,46.90
2019-05-28T17:19:49.981Z,48.09
2019-05-28T17:22:15.768Z,48.20
2019-05-28T17:24:41.566Z,48.66
2019-05-28T17:27:07.387Z,48.12
2019-05-28T17:29:33.169Z,49.08
2019-05-28T17:31:58.986Z,48.74
2019-05-28T17:34:24.791Z,48.98
2019-05-28T17:36:50.593Z,49.20
2019-05-28T17:39:16.378Z,49.12
2019-05-28T17:41:42.173Z,49.22
2019-05-28T17:44:07.963Z,49.21
2019-05-28T17:46:33.774Z,49.40
2019-05-28T17:48:59.554Z,49.22
2019-05-28T17:51:25.370Z,49.62
2019-05-28T17:53:51.179Z,48.86
2019-05-28T17:56:16.978Z,49.28
2019-05-28T17:58:42.770Z,49.43
2019-05-28T18:01:08.577Z,49.81
2019-05-28T18:03:35.333Z,51.45
2019-05-28T18:06:01.383Z,52.36
2019-05-28T18:08:29.335Z,52.84
2019-05-28T18:11:03.620Z,52.35
2019-05-28T18:13:22.730Z,52.30
2019-05-28T18:15:48.710Z,52.68
2019-05-28T18:18:14.966Z,53.25
2019-05-28T18:20:40.760Z,53.29
2019-05-28T18:23:06.571Z,52.36
2019-05-28T18:25:32.407Z,52.92
2019-05-28T18:27:58.824Z,52.80
2019-05-28T18:30:24.812Z,53.34
2019-05-28T18:32:50.719Z,53.84
2019-05-28T18:35:18.707Z,54.15
2019-05-28T18:38:03.425Z,54.49
2019-05-28T18:40:26.721Z,54.85
2019-05-28T18:42:52.646Z,54.19
2019-05-28T18:45:18.886Z,54.19
2019-05-28T18:47:45.097Z,54.74
2019-05-28T18:50:11.955Z,55.08
2019-05-28T18:52:37.756Z,55.06
2019-05-28T18:55:05.617Z,55.76
2019-05-28T18:57:31.557Z,55.81
2019-05-28T18:59:57.346Z,55.64
2019-05-28T19:02:23.153Z,56.31
2019-05-28T19:04:48.944Z,56.62
2019-05-28T19:07:14.758Z,57.59
2019-05-28T19:09:40.979Z,57.59
2019-05-28T19:12:06.768Z,57.90
2019-05-28T19:14:32.572Z,58.62
2019-05-28T19:16:58.375Z,58.79
2019-05-28T19:19:24.178Z,58.64
2019-05-28T19:21:49.985Z,59.36
2019-05-28T19:24:16.559Z,59.39
2019-05-28T19:26:42.580Z,59.42
2019-05-28T19:29:08.417Z,59.34
2019-05-28T19:31:34.210Z,59.55
2019-05-28T19:34:00.026Z,59.75
2019-05-28T19:36:26.539Z,60.16
2019-05-28T19:38:53.043Z,60.24
2019-05-28T19:41:18.905Z,60.52
2019-05-28T19:43:44.711Z,60.57
2019-05-28T19:46:10.839Z,60.84
2019-05-28T19:48:36.685Z,61.49
2019-05-28T19:51:02.702Z,61.53
2019-05-28T19:53:28.513Z,62.16
2019-05-28T19:55:54.360Z,62.38
2019-05-28T19:58:20.336Z,62.67
2019-05-28T20:00:46.171Z,62.90
2019-05-28T20:03:12.344Z,63.18
2019-05-28T20:05:38.332Z,63.54
2019-05-28T20:08:04.235Z,64.44
2019-05-28T20:10:30.030Z,64.29
2019-05-28T20:12:55.839Z,64.38
2019-05-28T20:15:23.737Z,64.33
2019-05-28T20:17:50.306Z,64.35
2019-05-28T20:20:18.018Z,64.94
2019-05-28T20:22:43.828Z,64.94
2019-05-28T20:25:09.864Z,64.83
2019-05-28T20:27:35.657Z,64.86
2019-05-28T20:30:03.026Z,65.12
2019-05-28T20:32:28.965Z,65.20
2019-05-28T20:34:54.790Z,65.48
2019-05-28T20:37:20.603Z,65.60
2019-05-28T20:39:46.416Z,65.83
2019-05-28T20:42:26.083Z,66.02
2019-05-28T20:44:39.929Z,66.31
2019-05-28T20:47:06.958Z,66.31
2019-05-28T20:49:32.831Z,66.46
2019-05-28T20:51:58.619Z,66.72
2019-05-28T20:54:24.412Z,66.63
2019-05-28T20:56:51.942Z,66.81
2019-05-28T20:59:17.961Z,67.06
2019-05-28T21:01:43.758Z,67.06
2019-05-28T21:04:09.582Z,67.19
2019-05-28T21:06:35.375Z,67.38
2019-05-28T21:09:01.162Z,67.64
2019-05-28T21:11:26.961Z,67.84
2019-05-28T21:13:52.746Z,68.20
2019-05-28T21:16:18.542Z,68.44
2019-05-28T21:18:44.338Z,68.55
2019-05-28T21:21:10.180Z,68.94
2019-05-28T21:23:35.976Z,69.15
2019-05-28T21:26:01.802Z,69.08
2019-05-28T21:28:27.627Z,69.44
2019-05-28T21:30:54.602Z,69.37
2019-05-28T21:33:20.494Z,69.60
2019-05-28T21:35:46.302Z,69.86
2019-05-28T21:38:12.097Z,69.92
2019-05-28T21:40:37.892Z,70.08
2019-05-28T21:43:09.380Z,70.29
2019-05-28T21:45:31.385Z,70.29
2019-05-28T21:47:58.388Z,70.56
2019-05-28T21:50:24.412Z,70.75
2019-05-28T21:52:50.210Z,71.06
2019-05-28T21:55:16.094Z,71.37
2019-05-28T21:57:41.913Z,71.69
2019-05-28T22:00:19.146Z,71.99
2019-05-28T22:02:44.968Z,72.21
2019-05-28T22:05:12.655Z,72.59
2019-05-28T22:07:38.470Z,72.77
2019-05-28T22:10:05.357Z,72.77
2019-05-28T22:12:31.159Z,73.14
2019-05-28T22:14:57.965Z,73.21
2019-05-28T22:17:23.771Z,73.29
2019-05-28T22:19:49.579Z,73.29
2019-05-28T22:22:15.375Z,73.19
2019-05-28T22:24:41.174Z,72.98
2019-05-28T22:27:06.974Z,73.09
2019-05-28T22:29:32.780Z,73.67
2019-05-28T22:31:58.768Z,74.04
2019-05-28T22:34:24.575Z,74.08
2019-05-28T22:36:50.468Z,74.08
2019-05-28T22:39:16.271Z,74.88
2019-05-28T22:41:42.088Z,74.75
2019-05-28T22:44:08.079Z,74.85
2019-05-28T22:46:33.997Z,74.74
2019-05-28T22:48:59.795Z,74.75
2019-05-28T22:51:25.588Z,75.04
2019-05-28T22:53:51.391Z,74.80
2019-05-28T22:56:17.179Z,74.46
2019-05-28T22:58:43.007Z,74.70
2019-05-28T23:01:08.802Z,74.84
2019-05-28T23:03:34.609Z,74.98
2019-05-28T23:06:01.121Z,75.11
2019-05-28T23:08:26.900Z,75.27
2019-05-28T23:10:52.707Z,75.63
2019-05-28T23:13:18.538Z,76.22
2019-05-28T23:15:44.352Z,76.78
2019-05-28T23:18:11.020Z,77.26
2019-05-28T23:20:36.867Z,77.38
2019-05-28T23:23:03.235Z,77.44
2019-05-28T23:25:29.127Z,77.39
2019-05-28T23:27:54.911Z,77.58
2019-05-28T23:30:25.134Z,77.80
2019-05-28T23:32:48.714Z,77.76
2019-05-28T23:35:14.614Z,78.18
2019-05-28T23:37:40.401Z,77.90
2019-05-28T23:40:07.144Z,78.29
2019-05-28T23:42:32.918Z,78.32
2019-05-28T23:44:58.746Z,77.57
2019-05-28T23:47:24.554Z,77.09
2019-05-28T23:49:50.374Z,77.22
2019-05-28T23:52:17.042Z,77.06
2019-05-28T23:54:42.861Z,77.67
2019-05-28T23:57:09.820Z,78.58
2019-05-28T23:59:35.663Z,79.20
